createdAt,value
2022-08-19T00:02:00.563Z,18.78
2022-08-19T00:04:37.147Z,18.71
2022-08-19T00:07:07.427Z,18.71
2022-08-19T00:09:35.905Z,18.76
2022-08-19T00:12:05.044Z,18.80
2022-08-19T00:14:33.674Z,18.84
2022-08-19T00:17:04.023Z,18.75
2022-08-19T00:19:34.244Z,18.72
2022-08-19T00:22:03.397Z,18.75
2022-08-19T00:24:31.673Z,18.79
2022-08-19T00:27:26.098Z,18.77
2022-08-19T00:29:52.510Z,18.77
2022-08-19T00:32:22.983Z,18.78
2022-08-19T00:34:54.332Z,18.75
2022-08-19T00:37:24.712Z,18.65
2022-08-19T00:39:53.179Z,18.59
2022-08-19T00:42:24.113Z,18.59
2022-08-19T00:44:53.001Z,18.58
2022-08-19T00:47:21.257Z,18.54
2022-08-19T00:49:57.720Z,18.55
2022-08-19T00:52:31.421Z,18.58
2022-08-19T00:55:01.499Z,18.58
2022-08-19T00:57:36.479Z,18.67
2022-08-19T01:00:13.798Z,18.74
2022-08-19T01:02:43.982Z,18.83
2022-08-19T01:05:19.438Z,18.73
2022-08-19T01:07:49.022Z,18.76
2022-08-19T01:10:24.276Z,18.74
2022-08-19T01:12:56.076Z,18.85
2022-08-19T01:15:31.352Z,18.86
2022-08-19T01:18:06.543Z,18.96
2022-08-19T01:20:36.307Z,19.02
2022-08-19T01:23:06.418Z,19.01
2022-08-19T01:25:44.417Z,19.01
2022-08-19T01:28:40.001Z,18.97
2022-08-19T01:31:26.520Z,18.90
2022-08-19T01:33:58.903Z,18.85
2022-08-19T01:36:31.917Z,18.77
2022-08-19T01:39:02.374Z,18.90
2022-08-19T01:41:30.710Z,18.96
2022-08-19T01:44:09.761Z,18.76
2022-08-19T01:46:48.202Z,18.82
2022-08-19T01:49:19.201Z,18.66
2022-08-19T01:51:47.897Z,18.40
2022-08-19T01:54:23.300Z,18.37
2022-08-19T01:57:02.622Z,18.28
2022-08-19T01:59:33.622Z,18.29
2022-08-19T02:02:02.129Z,18.34
2022-08-19T02:04:30.421Z,18.17
2022-08-19T02:07:00.213Z,18.14
2022-08-19T02:09:30.033Z,18.21
2022-08-19T02:11:58.349Z,18.30
2022-08-19T02:14:26.576Z,18.28
2022-08-19T02:16:54.895Z,18.34
2022-08-19T02:19:23.397Z,18.29
2022-08-19T02:21:52.040Z,18.17
2022-08-19T02:24:20.246Z,18.19
2022-08-19T02:26:49.900Z,18.35
2022-08-19T02:29:18.137Z,18.39
2022-08-19T02:31:46.453Z,18.52
2022-08-19T02:34:14.930Z,18.45
2022-08-19T02:36:43.192Z,18.42
2022-08-19T02:39:10.627Z,18.49
2022-08-19T02:41:38.852Z,18.37
2022-08-19T02:44:29.362Z,18.22
2022-08-19T02:46:56.811Z,18.24
2022-08-19T02:49:25.192Z,18.25
2022-08-19T02:51:53.425Z,18.34
2022-08-19T02:54:21.699Z,18.27
2022-08-19T02:56:50.900Z,18.21
2022-08-19T02:59:22.946Z,18.14
2022-08-19T03:01:51.586Z,18.11
2022-08-19T03:04:21.237Z,18.01
2022-08-19T03:06:51.053Z,18.03
2022-08-19T03:09:21.769Z,17.87
2022-08-19T03:11:52.704Z,17.88
2022-08-19T03:14:22.636Z,17.90
2022-08-19T03:16:54.076Z,17.76
2022-08-19T03:19:23.307Z,17.87
2022-08-19T03:21:52.193Z,17.78
2022-08-19T03:24:21.804Z,17.71
2022-08-19T03:26:53.471Z,17.66
2022-08-19T03:29:30.945Z,17.76
2022-08-19T03:32:01.553Z,17.87
2022-08-19T03:34:33.550Z,17.80
2022-08-19T03:37:07.502Z,17.83
2022-08-19T03:39:37.955Z,17.88
2022-08-19T03:42:32.880Z,18.00
2022-08-19T03:44:56.546Z,17.87
2022-08-19T03:47:24.795Z,17.81
2022-08-19T03:49:53.078Z,17.85
2022-08-19T03:52:21.291Z,17.84
2022-08-19T03:54:49.555Z,17.98
2022-08-19T03:57:17.810Z,17.94
2022-08-19T03:59:46.056Z,17.92
2022-08-19T04:02:16.186Z,17.96
2022-08-19T04:04:46.133Z,18.01
2022-08-19T04:07:17.324Z,17.95
2022-08-19T04:09:46.099Z,17.92
2022-08-19T04:12:14.377Z,17.90
2022-08-19T04:14:42.761Z,17.97
2022-08-19T04:17:11.041Z,17.99
2022-08-19T04:19:41.002Z,18.02
2022-08-19T04:22:09.442Z,18.07
2022-08-19T04:24:38.114Z,18.11
2022-08-19T04:27:07.811Z,18.07
2022-08-19T04:29:36.209Z,18.13
2022-08-19T04:32:08.556Z,18.21
2022-08-19T04:35:02.343Z,18.26
2022-08-19T04:37:35.766Z,18.24
2022-08-19T04:40:25.941Z,18.22
2022-08-19T04:42:54.528Z,18.21
2022-08-19T04:45:23.379Z,18.16
2022-08-19T04:47:58.190Z,18.19
2022-08-19T04:50:44.373Z,18.20
2022-08-19T04:53:14.037Z,18.26
2022-08-19T04:55:43.504Z,18.34
2022-08-19T04:58:11.757Z,18.34
2022-08-19T05:00:41.793Z,18.29
2022-08-19T05:03:10.357Z,18.29
2022-08-19T05:05:44.974Z,18.35
2022-08-19T05:08:30.616Z,18.40
2022-08-19T05:11:00.100Z,18.50
2022-08-19T05:13:28.841Z,18.49
2022-08-19T05:15:59.851Z,18.52
2022-08-19T05:18:46.247Z,18.54
2022-08-19T05:21:37.145Z,18.64
2022-08-19T05:24:09.831Z,18.56
2022-08-19T05:26:38.501Z,18.61
2022-08-19T05:29:09.421Z,18.54
2022-08-19T05:31:41.917Z,18.67
2022-08-19T05:34:18.431Z,18.59
2022-08-19T05:36:49.612Z,18.66
2022-08-19T05:39:22.980Z,18.60
2022-08-19T05:41:55.177Z,18.68
2022-08-19T05:44:23.678Z,18.74
2022-08-19T05:46:53.842Z,18.79
2022-08-19T05:49:25.823Z,18.78
2022-08-19T05:51:55.923Z,18.78
2022-08-19T05:54:26.310Z,18.64
2022-08-19T05:56:56.023Z,18.59
2022-08-19T05:59:24.970Z,18.56
2022-08-19T06:01:57.965Z,18.58
2022-08-19T06:04:26.996Z,18.58
2022-08-19T06:06:57.337Z,18.63
2022-08-19T06:09:27.454Z,18.64
2022-08-19T06:12:00.642Z,18.68
2022-08-19T06:14:35.512Z,18.69
2022-08-19T06:17:08.687Z,18.61
2022-08-19T06:19:40.564Z,18.66
2022-08-19T06:22:12.857Z,18.65
2022-08-19T06:24:42.469Z,18.65
2022-08-19T06:27:11.163Z,18.79
2022-08-19T06:29:40.332Z,18.82
2022-08-19T06:32:09.010Z,18.80
2022-08-19T06:34:37.348Z,18.77
2022-08-19T06:37:06.732Z,18.77
2022-08-19T06:39:40.277Z,18.74
2022-08-19T06:42:12.719Z,18.79
2022-08-19T06:44:48.958Z,18.92
2022-08-19T06:47:23.464Z,18.94
2022-08-19T06:50:03.984Z,19.05
2022-08-19T06:52:38.352Z,18.92
2022-08-19T06:55:08.524Z,18.88
2022-08-19T06:57:38.103Z,18.88
2022-08-19T07:00:12.913Z,18.91
2022-08-19T07:02:44.715Z,18.96
2022-08-19T07:05:16.970Z,18.99
2022-08-19T07:07:45.218Z,19.08
2022-08-19T07:10:16.304Z,19.03
2022-08-19T07:12:48.490Z,19.12
2022-08-19T07:15:17.214Z,19.13
2022-08-19T07:17:52.762Z,19.13
2022-08-19T07:20:21.630Z,19.19
2022-08-19T07:22:56.779Z,19.06
2022-08-19T07:25:32.128Z,19.11
2022-08-19T07:28:02.802Z,19.03
2022-08-19T07:30:31.596Z,18.88
2022-08-19T07:33:00.040Z,18.93
2022-08-19T07:35:33.150Z,18.95
2022-08-19T07:38:03.652Z,19.06
2022-08-19T07:40:32.977Z,19.07
2022-08-19T07:43:02.674Z,19.04
2022-08-19T07:45:32.777Z,19.09
2022-08-19T07:48:02.044Z,19.11
2022-08-19T07:50:30.649Z,18.99
2022-08-19T07:52:58.920Z,18.98
2022-08-19T07:55:40.403Z,19.01
2022-08-19T07:58:15.350Z,19.08
2022-08-19T08:00:45.553Z,19.14
2022-08-19T08:03:15.157Z,19.14
2022-08-19T08:06:00.674Z,19.22
2022-08-19T08:08:48.081Z,19.30
2022-08-19T08:11:21.079Z,19.43
2022-08-19T08:14:00.892Z,19.54
2022-08-19T08:16:35.645Z,19.71
2022-08-19T08:19:14.379Z,19.86
2022-08-19T08:21:49.807Z,19.93
2022-08-19T08:24:18.999Z,19.77
2022-08-19T08:26:52.197Z,19.69
2022-08-19T08:29:27.187Z,19.66
2022-08-19T08:32:04.518Z,19.62
2022-08-19T08:34:43.374Z,19.58
2022-08-19T08:37:11.672Z,19.68
2022-08-19T08:39:40.049Z,19.75
2022-08-19T08:42:19.297Z,19.95
2022-08-19T08:45:01.984Z,20.03
2022-08-19T08:47:41.897Z,20.13
2022-08-19T08:50:17.883Z,20.21
2022-08-19T08:52:54.069Z,20.14
2022-08-19T08:55:28.509Z,20.14
2022-08-19T08:58:14.883Z,20.34
2022-08-19T09:00:49.465Z,20.35
2022-08-19T09:03:23.208Z,20.36
2022-08-19T09:06:01.941Z,20.58
2022-08-19T09:08:45.222Z,20.77
2022-08-19T09:11:42.634Z,21.05
2022-08-19T09:14:49.449Z,20.84
2022-08-19T09:17:16.505Z,21.18
2022-08-19T09:19:57.401Z,21.22
2022-08-19T09:22:27.750Z,21.19
2022-08-19T09:24:57.799Z,21.03
2022-08-19T09:27:41.792Z,20.97
2022-08-19T09:30:22.690Z,20.99
2022-08-19T09:32:54.088Z,20.88
2022-08-19T09:35:24.694Z,20.95
2022-08-19T09:37:57.408Z,21.07
2022-08-19T09:40:30.020Z,21.16
2022-08-19T09:43:03.467Z,21.08
2022-08-19T09:45:38.468Z,20.72
2022-08-19T09:48:09.411Z,20.76
2022-08-19T09:50:39.460Z,20.75
2022-08-19T09:53:20.533Z,20.52
2022-08-19T09:55:48.829Z,20.35
2022-08-19T09:58:17.160Z,20.29
2022-08-19T10:00:46.690Z,20.27
2022-08-19T10:03:21.348Z,20.12
2022-08-19T10:05:54.545Z,20.06
2022-08-19T10:08:28.645Z,20.10
2022-08-19T10:10:58.902Z,20.10
2022-08-19T10:13:31.483Z,20.08
2022-08-19T10:16:07.861Z,19.99
2022-08-19T10:18:38.242Z,20.01
2022-08-19T10:21:16.388Z,20.04
2022-08-19T10:23:48.079Z,19.94
2022-08-19T10:26:21.777Z,19.93
2022-08-19T10:28:50.881Z,19.90
2022-08-19T10:32:00.664Z,19.79
2022-08-19T10:34:27.672Z,19.46
2022-08-19T10:37:01.070Z,19.11
2022-08-19T10:39:31.641Z,18.96
2022-08-19T10:42:01.608Z,18.82
2022-08-19T10:44:32.304Z,18.80
2022-08-19T10:47:01.958Z,18.71
2022-08-19T10:49:33.176Z,18.77
2022-08-19T10:52:20.205Z,18.87
2022-08-19T10:55:08.264Z,18.99
2022-08-19T10:57:59.471Z,19.06
2022-08-19T11:00:27.352Z,19.10
2022-08-19T11:02:56.730Z,19.01
2022-08-19T11:05:26.404Z,18.97
2022-08-19T11:07:54.779Z,18.93
2022-08-19T11:10:24.451Z,18.86
2022-08-19T11:12:55.137Z,18.91
2022-08-19T11:15:24.261Z,18.79
2022-08-19T11:17:55.249Z,18.78
2022-08-19T11:20:25.909Z,18.75
2022-08-19T11:22:55.361Z,18.80
2022-08-19T11:25:23.742Z,18.95
2022-08-19T11:27:53.258Z,19.08
2022-08-19T11:30:22.170Z,18.96
2022-08-19T11:32:50.567Z,18.85
2022-08-19T11:35:21.090Z,18.77
2022-08-19T11:37:50.796Z,18.56
2022-08-19T11:40:19.407Z,18.40
2022-08-19T11:42:57.245Z,18.36
2022-08-19T11:45:26.062Z,18.30
2022-08-19T11:47:54.850Z,18.33
2022-08-19T11:50:24.340Z,18.31
2022-08-19T11:52:57.166Z,18.35
2022-08-19T11:55:25.853Z,18.42
2022-08-19T11:57:54.312Z,18.38
2022-08-19T12:00:23.107Z,18.45
2022-08-19T12:02:51.340Z,18.44
2022-08-19T12:05:19.752Z,18.42
2022-08-19T12:07:48.342Z,18.52
2022-08-19T12:10:19.444Z,18.42
2022-08-19T12:12:58.753Z,18.42
2022-08-19T12:15:28.817Z,18.42
2022-08-19T12:18:06.687Z,18.44
2022-08-19T12:20:38.205Z,18.43
2022-08-19T12:23:07.759Z,18.53
2022-08-19T12:25:38.681Z,18.69
2022-08-19T12:28:06.943Z,18.69
2022-08-19T12:30:35.239Z,18.81
2022-08-19T12:33:03.481Z,18.74
2022-08-19T12:35:31.847Z,18.75
2022-08-19T12:38:00.933Z,18.72
2022-08-19T12:40:29.489Z,18.65
2022-08-19T12:42:59.075Z,18.62
2022-08-19T12:45:28.259Z,18.64
2022-08-19T12:47:56.593Z,18.75
2022-08-19T12:50:24.975Z,18.77
2022-08-19T12:52:53.601Z,18.72
2022-08-19T12:55:22.014Z,18.67
2022-08-19T12:57:51.593Z,18.66
2022-08-19T13:00:23.951Z,18.66
2022-08-19T13:02:54.393Z,18.60
2022-08-19T13:05:26.902Z,18.62
2022-08-19T13:07:57.979Z,18.65
2022-08-19T13:10:35.816Z,18.62
2022-08-19T13:13:07.330Z,18.54
2022-08-19T13:15:40.574Z,18.53
2022-08-19T13:18:11.520Z,18.53
2022-08-19T13:20:42.104Z,18.46
2022-08-19T13:23:20.675Z,18.49
2022-08-19T13:25:59.355Z,18.50
2022-08-19T13:28:47.772Z,18.45
2022-08-19T13:31:37.454Z,18.41
2022-08-19T13:34:06.636Z,18.37
2022-08-19T13:36:35.196Z,18.36
2022-08-19T13:39:04.096Z,18.32
2022-08-19T13:41:32.609Z,18.28
2022-08-19T13:44:00.960Z,18.25
2022-08-19T13:46:30.601Z,18.24
2022-08-19T13:48:59.164Z,18.19
2022-08-19T13:51:27.798Z,18.19
2022-08-19T13:53:56.308Z,18.21
2022-08-19T13:56:26.465Z,18.22
2022-08-19T13:58:55.367Z,18.19
2022-08-19T14:01:28.490Z,18.16
2022-08-19T14:03:58.385Z,18.17
2022-08-19T14:06:26.615Z,18.11
2022-08-19T14:08:54.859Z,18.10
2022-08-19T14:11:23.835Z,18.09
2022-08-19T14:13:52.732Z,18.12
2022-08-19T14:16:22.558Z,18.20
2022-08-19T14:18:50.785Z,18.13
2022-08-19T14:21:25.253Z,18.13
2022-08-19T14:23:54.673Z,18.13
2022-08-19T14:26:24.889Z,18.12
2022-08-19T14:28:53.776Z,18.15
2022-08-19T14:31:27.827Z,18.12
2022-08-19T14:33:59.195Z,18.15
2022-08-19T14:36:28.921Z,18.13
2022-08-19T14:38:58.570Z,18.14
2022-08-19T14:41:27.924Z,18.12
2022-08-19T14:43:56.861Z,18.14
2022-08-19T14:46:29.465Z,18.13
2022-08-19T14:48:59.969Z,18.13
2022-08-19T14:51:29.888Z,18.16
2022-08-19T14:53:58.790Z,18.23
2022-08-19T14:56:31.268Z,18.20
2022-08-19T14:59:02.001Z,18.26
2022-08-19T15:01:30.540Z,18.29
2022-08-19T15:03:58.821Z,18.26
2022-08-19T15:06:30.574Z,18.32
2022-08-19T15:09:03.857Z,18.32
2022-08-19T15:11:33.774Z,18.35
2022-08-19T15:14:02.753Z,18.34
2022-08-19T15:16:31.244Z,18.41
2022-08-19T15:19:01.700Z,18.49
2022-08-19T15:21:32.541Z,18.50
2022-08-19T15:24:02.608Z,18.53
2022-08-19T15:26:33.481Z,18.51
2022-08-19T15:29:02.577Z,18.51
2022-08-19T15:31:35.062Z,18.56
2022-08-19T15:34:06.818Z,18.54
2022-08-19T15:36:37.115Z,18.55
2022-08-19T15:39:07.276Z,18.56
2022-08-19T15:41:36.999Z,18.58
2022-08-19T15:44:10.528Z,18.50
2022-08-19T15:46:42.400Z,18.50
2022-08-19T15:49:12.977Z,18.53
2022-08-19T15:51:46.403Z,18.37
2022-08-19T15:54:21.596Z,18.32
2022-08-19T15:57:08.686Z,18.37
2022-08-19T15:59:59.966Z,18.37
2022-08-19T16:02:53.442Z,18.53
2022-08-19T16:05:45.091Z,18.46
2022-08-19T16:08:15.540Z,18.60
2022-08-19T16:10:43.818Z,18.47
2022-08-19T16:13:12.028Z,18.48
2022-08-19T16:15:44.665Z,18.52
2022-08-19T16:18:12.931Z,18.43
2022-08-19T16:20:41.160Z,18.36
2022-08-19T16:23:10.124Z,18.45
2022-08-19T16:25:39.741Z,18.44
2022-08-19T16:28:09.815Z,18.41
2022-08-19T16:30:40.855Z,18.37
2022-08-19T16:33:10.606Z,18.26
2022-08-19T16:35:39.736Z,18.25
2022-08-19T16:38:08.037Z,18.28
2022-08-19T16:40:37.136Z,18.26
2022-08-19T16:43:08.399Z,18.26
2022-08-19T16:45:36.745Z,18.21
2022-08-19T16:48:06.032Z,18.26
2022-08-19T16:50:48.780Z,18.12
2022-08-19T16:53:20.650Z,18.08
2022-08-19T16:55:54.019Z,18.03
2022-08-19T16:58:29.594Z,18.06
2022-08-19T17:01:03.440Z,17.94
2022-08-19T17:03:36.601Z,17.80
2022-08-19T17:06:20.551Z,17.77
2022-08-19T17:08:51.206Z,17.71
2022-08-19T17:11:21.160Z,17.66
2022-08-19T17:13:52.752Z,17.47
2022-08-19T17:16:24.833Z,17.39
2022-08-19T17:18:53.702Z,17.30
2022-08-19T17:21:25.461Z,16.97
2022-08-19T17:23:55.238Z,16.73
2022-08-19T17:26:25.334Z,16.63
2022-08-19T17:28:57.677Z,16.42
2022-08-19T17:31:29.312Z,16.46
2022-08-19T17:33:58.866Z,16.50
2022-08-19T17:36:30.511Z,16.48
2022-08-19T17:39:02.169Z,16.48
2022-08-19T17:41:32.047Z,16.31
2022-08-19T17:44:02.664Z,16.31
2022-08-19T17:46:31.650Z,16.43
2022-08-19T17:49:00.123Z,16.25
2022-08-19T17:51:44.923Z,16.22
2022-08-19T17:54:16.652Z,16.20
2022-08-19T17:56:48.119Z,16.20
2022-08-19T17:59:46.528Z,16.11
2022-08-19T18:02:28.418Z,16.13
2022-08-19T18:04:59.098Z,16.16
2022-08-19T18:07:28.601Z,16.17
2022-08-19T18:09:58.970Z,16.15
2022-08-19T18:12:31.484Z,16.13
2022-08-19T18:15:07.589Z,16.19
2022-08-19T18:17:37.682Z,16.14
2022-08-19T18:20:12.167Z,16.14
2022-08-19T18:22:44.904Z,16.15
2022-08-19T18:25:19.665Z,16.10
2022-08-19T18:27:49.594Z,16.12
2022-08-19T18:30:20.348Z,16.09
2022-08-19T18:32:52.434Z,16.11
2022-08-19T18:35:29.783Z,16.08
2022-08-19T18:38:01.116Z,16.13
2022-08-19T18:40:57.376Z,16.08
2022-08-19T18:43:43.477Z,16.08
2022-08-19T18:46:31.181Z,16.01
2022-08-19T18:49:05.881Z,16.06
2022-08-19T18:51:34.871Z,16.02
2022-08-19T18:54:05.080Z,16.06
2022-08-19T18:56:34.953Z,16.01
2022-08-19T18:59:03.518Z,15.98
2022-08-19T19:01:39.468Z,15.97
2022-08-19T19:04:11.507Z,15.99
2022-08-19T19:06:42.927Z,15.97
2022-08-19T19:09:15.240Z,15.96
2022-08-19T19:11:48.349Z,15.94
2022-08-19T19:14:47.641Z,15.97
2022-08-19T19:17:17.696Z,15.92
2022-08-19T19:19:46.285Z,15.92
2022-08-19T19:22:28.840Z,15.90
2022-08-19T19:25:20.781Z,15.90
2022-08-19T19:31:26.972Z,15.88
2022-08-19T19:34:42.486Z,15.86
2022-08-19T19:37:12.566Z,15.87
2022-08-19T19:39:46.738Z,15.86
2022-08-19T19:42:21.449Z,15.84
2022-08-19T19:44:55.694Z,15.81
2022-08-19T19:47:28.585Z,15.76
2022-08-19T19:50:15.752Z,15.69
2022-08-19T19:52:46.869Z,15.68
2022-08-19T19:55:19.355Z,15.63
2022-08-19T19:57:49.425Z,15.62
2022-08-19T20:00:19.900Z,15.64
2022-08-19T20:02:50.654Z,15.67
2022-08-19T20:05:22.088Z,15.64
2022-08-19T20:08:09.533Z,15.58
2022-08-19T20:10:38.963Z,15.57
2022-08-19T20:13:08.997Z,15.56
2022-08-19T20:15:42.391Z,15.55
2022-08-19T20:18:13.402Z,15.52
2022-08-19T20:20:43.442Z,15.52
2022-08-19T20:23:11.981Z,15.47
2022-08-19T20:25:40.593Z,15.48
2022-08-19T20:28:09.025Z,15.53
2022-08-19T20:30:39.565Z,15.46
2022-08-19T20:33:14.607Z,15.46
2022-08-19T20:35:45.262Z,15.30
2022-08-19T20:38:14.402Z,15.23
2022-08-19T20:40:42.888Z,15.25
2022-08-19T20:43:13.564Z,15.17
2022-08-19T20:45:42.488Z,15.22
2022-08-19T20:48:12.508Z,15.24
2022-08-19T20:50:40.993Z,15.21
2022-08-19T20:53:17.508Z,15.19
2022-08-19T20:55:49.195Z,15.23
2022-08-19T20:58:21.322Z,15.20
2022-08-19T21:00:51.415Z,15.28
2022-08-19T21:03:23.299Z,15.34
2022-08-19T21:05:52.582Z,15.32
2022-08-19T21:08:23.158Z,15.24
2022-08-19T21:10:53.659Z,15.19
2022-08-19T21:13:22.912Z,15.27
2022-08-19T21:15:51.810Z,15.21
2022-08-19T21:18:22.549Z,15.27
2022-08-19T21:20:52.210Z,15.24
2022-08-19T21:23:25.409Z,15.27
2022-08-19T21:25:55.258Z,15.29
2022-08-19T21:28:35.076Z,15.27
2022-08-19T21:31:07.539Z,15.30
2022-08-19T21:33:35.927Z,15.25
2022-08-19T21:36:06.409Z,15.36
2022-08-19T21:38:36.115Z,15.35
2022-08-19T21:41:07.530Z,15.32
2022-08-19T21:43:37.331Z,15.32
2022-08-19T21:46:06.918Z,15.32
2022-08-19T21:48:35.257Z,15.30
2022-08-19T21:51:03.523Z,15.33
2022-08-19T21:53:34.175Z,15.31
2022-08-19T21:56:06.378Z,15.36
2022-08-19T21:58:36.440Z,15.40
2022-08-19T22:01:07.917Z,15.44
2022-08-19T22:03:39.107Z,15.42
2022-08-19T22:06:09.363Z,15.45
2022-08-19T22:08:37.814Z,15.42
2022-08-19T22:11:07.422Z,15.30
2022-08-19T22:13:40.132Z,15.35
2022-08-19T22:16:09.449Z,15.40
2022-08-19T22:18:37.899Z,15.40
2022-08-19T22:21:11.229Z,15.34
2022-08-19T22:23:40.536Z,15.38
2022-08-19T22:26:10.235Z,15.34
2022-08-19T22:28:39.519Z,15.42
2022-08-19T22:31:09.082Z,15.44
2022-08-19T22:33:38.324Z,15.48
2022-08-19T22:36:08.526Z,15.38
2022-08-19T22:38:38.321Z,15.34
2022-08-19T22:41:08.143Z,15.42
2022-08-19T22:43:37.977Z,15.37
2022-08-19T22:46:17.104Z,15.43
2022-08-19T22:48:47.497Z,15.47
2022-08-19T22:51:34.442Z,15.50
2022-08-19T22:54:03.876Z,15.46
2022-08-19T22:56:32.123Z,15.49
2022-08-19T22:59:03.163Z,15.51
2022-08-19T23:01:32.112Z,15.54
2022-08-19T23:04:03.701Z,15.62
2022-08-19T23:06:34.494Z,15.64
2022-08-19T23:09:06.709Z,15.52
2022-08-19T23:11:41.410Z,15.54
2022-08-19T23:14:13.155Z,15.47
2022-08-19T23:16:42.692Z,15.43
2022-08-19T23:19:11.830Z,15.52
2022-08-19T23:21:40.736Z,15.53
2022-08-19T23:24:10.233Z,15.51
2022-08-19T23:26:59.374Z,15.48
2022-08-19T23:29:48.466Z,15.46
2022-08-19T23:32:17.905Z,15.45
2022-08-19T23:34:46.461Z,15.48
2022-08-19T23:37:15.183Z,15.45
2022-08-19T23:39:44.677Z,15.47
2022-08-19T23:42:14.144Z,15.51
2022-08-19T23:44:51.949Z,15.53
2022-08-19T23:47:21.340Z,15.56
2022-08-19T23:49:50.692Z,15.57
2022-08-19T23:52:19.219Z,15.58
2022-08-19T23:54:47.469Z,15.50
2022-08-19T23:57:16.042Z,15.44
2022-08-19T23:59:46.270Z,15.46
